createdAt,value
2018-05-12T00:00:04.464Z,15.68
2018-05-12T00:02:32.047Z,15.67
2018-05-12T00:04:59.799Z,15.66
2018-05-12T00:07:27.371Z,15.65
2018-05-12T00:09:54.947Z,15.63
2018-05-12T00:12:22.700Z,15.59
2018-05-12T00:14:50.296Z,15.51
2018-05-12T00:17:17.873Z,15.52
2018-05-12T00:19:45.495Z,15.53
2018-05-12T00:22:13.063Z,15.56
2018-05-12T00:24:40.631Z,15.56
2018-05-12T00:27:08.264Z,15.56
2018-05-12T00:29:35.895Z,15.54
2018-05-12T00:32:03.485Z,15.42
2018-05-12T00:34:31.211Z,15.28
2018-05-12T00:36:58.974Z,15.17
2018-05-12T00:39:26.543Z,15.08
2018-05-12T00:41:54.188Z,14.99
2018-05-12T00:44:21.780Z,14.90
2018-05-12T00:46:49.383Z,14.83
2018-05-12T00:49:17.022Z,14.75
2018-05-12T00:51:44.635Z,14.61
2018-05-12T00:54:12.218Z,14.51
2018-05-12T00:56:39.979Z,14.45
2018-05-12T00:59:07.554Z,14.35
2018-05-12T01:01:35.175Z,14.24
2018-05-12T01:04:02.832Z,14.16
2018-05-12T01:06:30.421Z,13.93
2018-05-12T01:08:57.995Z,13.79
2018-05-12T01:11:25.740Z,13.65
2018-05-12T01:13:53.360Z,13.57
2018-05-12T01:16:20.952Z,13.53
2018-05-12T01:18:48.593Z,13.53
2018-05-12T01:21:16.196Z,13.52
2018-05-12T01:23:43.765Z,13.48
2018-05-12T01:26:11.403Z,13.48
2018-05-12T01:28:39.435Z,13.45
2018-05-12T01:31:07.089Z,13.46
2018-05-12T01:33:36.854Z,13.46
2018-05-12T01:36:04.491Z,13.44
2018-05-12T01:38:32.085Z,13.41
2018-05-12T01:41:00.688Z,13.42
2018-05-12T01:43:28.872Z,13.44
2018-05-12T01:45:56.434Z,13.46
2018-05-12T01:48:24.162Z,13.49
2018-05-12T01:50:51.740Z,13.49
2018-05-12T01:53:19.308Z,13.49
2018-05-12T01:55:46.954Z,13.51
2018-05-12T01:58:14.552Z,13.55
2018-05-12T02:00:42.132Z,13.57
2018-05-12T02:03:09.883Z,13.58
2018-05-12T02:05:37.471Z,13.60
2018-05-12T02:08:05.056Z,13.58
2018-05-12T02:10:32.704Z,13.58
2018-05-12T02:13:00.288Z,13.55
2018-05-12T02:15:27.895Z,13.55
2018-05-12T02:17:55.631Z,13.54
2018-05-12T02:20:23.195Z,13.48
2018-05-12T02:22:50.763Z,13.47
2018-05-12T02:25:18.489Z,13.46
2018-05-12T02:27:46.093Z,13.47
2018-05-12T02:30:13.680Z,13.42
2018-05-12T02:32:41.313Z,13.36
2018-05-12T02:35:08.898Z,13.32
2018-05-12T02:37:36.526Z,13.28
2018-05-12T02:40:04.300Z,13.30
2018-05-12T02:42:31.899Z,13.25
2018-05-12T02:44:59.486Z,13.27
2018-05-12T02:47:27.146Z,13.27
2018-05-12T02:49:54.715Z,13.21
2018-05-12T02:52:22.296Z,13.15
2018-05-12T02:54:49.935Z,13.12
2018-05-12T02:57:17.512Z,13.12
2018-05-12T02:59:45.096Z,13.08
2018-05-12T03:02:12.733Z,13.08
2018-05-12T03:04:40.333Z,13.07
2018-05-12T03:07:07.925Z,13.07
2018-05-12T03:09:35.663Z,13.06
2018-05-12T03:12:03.267Z,13.05
2018-05-12T03:14:30.871Z,13.07
2018-05-12T03:16:58.611Z,13.12
2018-05-12T03:19:26.182Z,13.16
2018-05-12T03:21:53.786Z,13.21
2018-05-12T03:24:21.548Z,13.21
2018-05-12T03:26:49.149Z,13.16
2018-05-12T03:29:16.767Z,13.11
2018-05-12T03:31:44.413Z,13.09
2018-05-12T03:34:12.029Z,13.14
2018-05-12T03:36:39.605Z,13.17
2018-05-12T03:39:07.853Z,13.22
2018-05-12T03:41:35.438Z,13.29
2018-05-12T03:44:03.074Z,13.29
2018-05-12T03:46:30.698Z,13.32
2018-05-12T03:48:58.800Z,13.38
2018-05-12T03:51:26.384Z,13.43
2018-05-12T03:53:54.031Z,13.49
2018-05-12T03:56:21.613Z,13.56
2018-05-12T03:58:49.203Z,13.65
2018-05-12T04:01:16.991Z,13.75
2018-05-12T04:03:44.573Z,13.86
2018-05-12T04:06:26.211Z,13.95
2018-05-12T04:09:05.886Z,14.01
2018-05-12T04:11:45.366Z,14.11
2018-05-12T04:14:12.980Z,14.21
2018-05-12T04:16:40.586Z,14.31
2018-05-12T04:19:08.219Z,14.43
2018-05-12T04:21:35.833Z,14.50
2018-05-12T04:24:03.438Z,14.64
2018-05-12T04:26:31.114Z,14.80
2018-05-12T04:28:58.695Z,14.91
2018-05-12T04:31:26.290Z,15.12
2018-05-12T04:33:53.961Z,15.27
2018-05-12T04:36:21.568Z,15.47
2018-05-12T04:38:49.162Z,15.68
2018-05-12T04:41:16.814Z,15.86
2018-05-12T04:43:44.406Z,16.00
2018-05-12T04:46:11.996Z,16.24
2018-05-12T04:48:39.649Z,16.46
2018-05-12T04:51:07.270Z,16.69
2018-05-12T04:53:34.855Z,16.92
2018-05-12T04:56:02.483Z,17.18
2018-05-12T04:58:30.106Z,17.40
2018-05-12T05:00:57.670Z,17.67
2018-05-12T05:03:26.676Z,17.89
2018-05-12T05:05:54.267Z,18.08
2018-05-12T05:08:21.858Z,18.32
2018-05-12T05:10:49.484Z,18.54
2018-05-12T05:13:17.048Z,18.79
2018-05-12T05:15:44.656Z,19.06
2018-05-12T05:18:12.434Z,19.36
2018-05-12T05:20:39.998Z,19.60
2018-05-12T05:23:07.575Z,19.59
2018-05-12T05:25:35.242Z,19.86
2018-05-12T05:28:02.817Z,19.99
2018-05-12T05:30:30.429Z,19.95
2018-05-12T05:32:58.063Z,20.13
2018-05-12T05:35:25.648Z,20.35
2018-05-12T05:37:53.244Z,20.65
2018-05-12T05:40:20.994Z,20.81
2018-05-12T05:42:48.637Z,20.86
2018-05-12T05:45:16.257Z,21.08
2018-05-12T05:47:43.988Z,21.19
2018-05-12T05:50:11.591Z,21.46
2018-05-12T05:52:39.189Z,21.49
2018-05-12T05:55:06.798Z,21.65
2018-05-12T05:57:34.394Z,21.77
2018-05-12T06:00:02.011Z,22.12
2018-05-12T06:02:29.665Z,22.26
2018-05-12T06:04:57.274Z,22.32
2018-05-12T06:07:24.847Z,22.38
2018-05-12T06:09:52.556Z,22.41
2018-05-12T06:12:20.154Z,22.10
2018-05-12T06:14:47.731Z,22.03
2018-05-12T06:17:15.451Z,22.21
2018-05-12T06:19:43.053Z,22.39
2018-05-12T06:22:11.366Z,22.23
2018-05-12T06:24:39.036Z,22.39
2018-05-12T06:27:06.605Z,22.53
2018-05-12T06:29:34.196Z,22.74
2018-05-12T06:32:01.848Z,22.83
2018-05-12T06:34:29.434Z,22.44
2018-05-12T06:36:57.047Z,22.45
2018-05-12T06:39:24.726Z,22.40
2018-05-12T06:41:52.318Z,22.28
2018-05-12T06:44:19.909Z,22.43
2018-05-12T06:46:47.645Z,22.51
2018-05-12T06:49:15.252Z,22.19
2018-05-12T06:51:43.764Z,22.13
2018-05-12T06:54:11.392Z,22.15
2018-05-12T06:56:38.978Z,21.86
2018-05-12T06:59:06.593Z,21.87
2018-05-12T07:01:34.227Z,22.11
2018-05-12T07:04:01.815Z,22.25
2018-05-12T07:06:29.406Z,22.34
2018-05-12T07:08:57.047Z,22.38
2018-05-12T07:11:24.695Z,22.46
2018-05-12T07:13:52.276Z,22.30
2018-05-12T07:16:20.029Z,22.56
2018-05-12T07:18:47.665Z,22.56
2018-05-12T07:21:16.076Z,22.77
2018-05-12T07:23:43.774Z,22.36
2018-05-12T07:26:11.376Z,22.45
2018-05-12T07:28:38.992Z,22.78
2018-05-12T07:31:06.801Z,22.81
2018-05-12T07:33:34.404Z,22.69
2018-05-12T07:36:02.064Z,22.85
2018-05-12T07:38:30.231Z,22.69
2018-05-12T07:40:57.811Z,22.67
2018-05-12T07:43:25.457Z,22.79
2018-05-12T07:45:53.120Z,22.53
2018-05-12T07:48:20.779Z,22.28
2018-05-12T07:50:48.396Z,22.58
2018-05-12T07:53:16.097Z,23.08
2018-05-12T07:55:43.745Z,23.26
2018-05-12T07:58:11.377Z,23.46
2018-05-12T08:00:39.032Z,23.78
2018-05-12T08:03:06.612Z,23.64
2018-05-12T08:05:34.188Z,23.40
2018-05-12T08:08:01.976Z,23.68
2018-05-12T08:10:29.600Z,23.96
2018-05-12T08:12:57.177Z,24.13
2018-05-12T08:15:25.692Z,24.14
2018-05-12T08:17:53.328Z,24.36
2018-05-12T08:20:20.968Z,24.37
2018-05-12T08:22:48.692Z,24.35
2018-05-12T08:25:16.279Z,24.42
2018-05-12T08:27:43.957Z,23.99
2018-05-12T08:30:11.596Z,23.70
2018-05-12T08:32:39.179Z,23.56
2018-05-12T08:35:06.782Z,23.52
2018-05-12T08:37:34.550Z,23.37
2018-05-12T08:40:02.180Z,23.05
2018-05-12T08:42:29.757Z,22.85
2018-05-12T08:44:57.471Z,22.70
2018-05-12T08:47:25.079Z,22.78
2018-05-12T08:49:52.678Z,22.38
2018-05-12T08:52:20.379Z,22.35
2018-05-12T08:54:48.019Z,22.59
2018-05-12T08:57:15.652Z,22.93
2018-05-12T08:59:43.316Z,22.92
2018-05-12T09:02:10.940Z,22.61
2018-05-12T09:04:38.531Z,22.53
2018-05-12T09:07:06.205Z,22.80
2018-05-12T09:09:33.841Z,22.85
2018-05-12T09:12:01.483Z,22.99
2018-05-12T09:14:29.208Z,23.16
2018-05-12T09:16:56.792Z,23.22
2018-05-12T09:19:24.586Z,23.72
2018-05-12T09:21:52.920Z,24.08
2018-05-12T09:24:20.567Z,24.16
2018-05-12T09:26:48.151Z,23.92
2018-05-12T09:29:15.836Z,23.87
2018-05-12T09:31:43.420Z,23.98
2018-05-12T09:34:10.994Z,24.12
2018-05-12T09:36:38.628Z,24.21
2018-05-12T09:39:07.116Z,24.24
2018-05-12T09:41:34.777Z,24.28
2018-05-12T09:44:02.611Z,24.47
2018-05-12T09:46:30.176Z,24.29
2018-05-12T09:48:57.891Z,24.20
2018-05-12T09:51:25.532Z,24.47
2018-05-12T09:53:53.119Z,24.53
2018-05-12T09:56:20.764Z,24.72
2018-05-12T09:58:48.395Z,24.85
2018-05-12T10:01:15.982Z,24.91
2018-05-12T10:03:43.585Z,25.07
2018-05-12T10:06:11.317Z,24.41
2018-05-12T10:08:38.908Z,24.35
2018-05-12T10:11:06.503Z,24.57
2018-05-12T10:13:34.131Z,24.78
2018-05-12T10:16:01.773Z,24.47
2018-05-12T10:18:29.349Z,24.18
2018-05-12T10:20:56.980Z,24.12
2018-05-12T10:23:24.643Z,24.22
2018-05-12T10:25:52.477Z,23.94
2018-05-12T10:28:20.398Z,23.87
2018-05-12T10:30:48.253Z,23.57
2018-05-12T10:33:16.103Z,23.72
2018-05-12T10:35:43.975Z,24.15
2018-05-12T10:38:11.834Z,24.24
2018-05-12T10:40:39.664Z,23.77
2018-05-12T10:43:07.655Z,23.51
2018-05-12T10:45:35.515Z,23.53
2018-05-12T10:48:03.363Z,23.38
2018-05-12T10:50:34.296Z,23.48
2018-05-12T10:53:02.142Z,23.41
2018-05-12T10:55:29.719Z,23.65
2018-05-12T10:57:57.459Z,24.07
2018-05-12T11:00:25.084Z,24.27
2018-05-12T11:02:52.655Z,24.05
2018-05-12T11:05:20.369Z,24.07
2018-05-12T11:07:47.973Z,24.22
2018-05-12T11:10:15.559Z,24.35
2018-05-12T11:12:45.278Z,24.61
2018-05-12T11:15:12.856Z,24.81
2018-05-12T11:17:40.429Z,24.82
2018-05-12T11:20:08.126Z,24.46
2018-05-12T11:22:35.677Z,23.67
2018-05-12T11:25:03.318Z,23.56
2018-05-12T11:27:31.049Z,23.27
2018-05-12T11:29:58.627Z,23.02
2018-05-12T11:32:26.197Z,23.27
2018-05-12T11:34:53.859Z,23.71
2018-05-12T11:37:21.428Z,24.30
2018-05-12T11:39:49.008Z,24.34
2018-05-12T11:42:17.035Z,24.21
2018-05-12T11:44:44.696Z,24.48
2018-05-12T11:47:12.236Z,24.53
2018-05-12T11:49:39.871Z,24.67
2018-05-12T11:52:07.468Z,24.99
2018-05-12T11:54:35.072Z,25.10
2018-05-12T11:57:02.728Z,24.85
2018-05-12T11:59:30.302Z,25.15
2018-05-12T12:01:57.909Z,25.41
2018-05-12T12:04:25.529Z,25.62
2018-05-12T12:06:53.145Z,25.82
2018-05-12T12:09:20.718Z,25.97
2018-05-12T12:11:48.362Z,26.13
2018-05-12T12:14:15.918Z,26.17
2018-05-12T12:16:43.554Z,26.35
2018-05-12T12:19:11.274Z,26.24
2018-05-12T12:21:38.873Z,26.14
2018-05-12T12:24:06.491Z,25.96
2018-05-12T12:26:34.104Z,25.41
2018-05-12T12:29:01.669Z,25.37
2018-05-12T12:31:29.237Z,25.19
2018-05-12T12:33:56.844Z,25.06
2018-05-12T12:36:24.424Z,24.95
2018-05-12T12:38:52.057Z,25.02
2018-05-12T12:41:19.913Z,24.85
2018-05-12T12:43:47.484Z,24.79
2018-05-12T12:46:15.313Z,24.71
2018-05-12T12:48:42.963Z,24.67
2018-05-12T12:51:10.649Z,24.26
2018-05-12T12:53:39.244Z,24.04
2018-05-12T12:56:06.979Z,24.13
2018-05-12T12:58:34.570Z,24.23
2018-05-12T13:01:02.154Z,24.25
2018-05-12T13:03:29.801Z,23.91
2018-05-12T13:05:57.422Z,23.87
2018-05-12T13:08:25.033Z,23.91
2018-05-12T13:10:52.681Z,23.88
2018-05-12T13:13:20.278Z,23.90
2018-05-12T13:15:47.906Z,23.91
2018-05-12T13:18:15.537Z,23.95
2018-05-12T13:20:43.147Z,23.92
2018-05-12T13:23:10.732Z,23.95
2018-05-12T13:25:38.342Z,24.10
2018-05-12T13:28:05.940Z,24.16
2018-05-12T13:30:33.524Z,24.14
2018-05-12T13:33:01.233Z,24.07
2018-05-12T13:35:28.818Z,23.93
2018-05-12T13:37:56.436Z,23.75
2018-05-12T13:40:24.263Z,23.82
2018-05-12T13:42:51.896Z,23.77
2018-05-12T13:45:19.469Z,23.66
2018-05-12T13:47:47.100Z,23.51
2018-05-12T13:50:14.697Z,23.38
2018-05-12T13:52:42.275Z,23.44
2018-05-12T13:55:09.981Z,23.48
2018-05-12T13:57:37.592Z,23.43
2018-05-12T14:00:05.251Z,23.42
2018-05-12T14:02:32.879Z,23.39
2018-05-12T14:05:00.478Z,23.35
2018-05-12T14:07:28.070Z,23.34
2018-05-12T14:09:55.815Z,23.25
2018-05-12T14:12:23.386Z,23.04
2018-05-12T14:14:50.971Z,23.05
2018-05-12T14:17:18.769Z,23.05
2018-05-12T14:19:46.387Z,23.18
2018-05-12T14:22:13.980Z,23.19
2018-05-12T14:24:41.618Z,23.20
2018-05-12T14:27:11.956Z,23.20
2018-05-12T14:29:39.547Z,23.13
2018-05-12T14:32:07.303Z,23.08
2018-05-12T14:34:34.881Z,23.17
2018-05-12T14:37:02.472Z,23.24
2018-05-12T14:39:30.134Z,23.22
2018-05-12T14:41:57.738Z,23.23
2018-05-12T14:44:25.319Z,23.31
2018-05-12T14:46:52.972Z,23.44
2018-05-12T14:49:20.580Z,23.41
2018-05-12T14:51:48.187Z,23.42
2018-05-12T14:54:15.912Z,23.33
2018-05-12T14:56:43.547Z,23.27
2018-05-12T14:59:11.159Z,23.16
2018-05-12T15:01:38.795Z,23.10
2018-05-12T15:04:06.384Z,23.14
2018-05-12T15:06:33.985Z,23.11
2018-05-12T15:09:01.612Z,23.16
2018-05-12T15:11:29.223Z,23.14
2018-05-12T15:13:56.828Z,23.08
2018-05-12T15:16:24.580Z,23.03
2018-05-12T15:18:52.149Z,22.88
2018-05-12T15:21:19.751Z,22.88
2018-05-12T15:23:47.394Z,22.89
2018-05-12T15:26:15.004Z,22.92
2018-05-12T15:28:42.574Z,22.90
2018-05-12T15:31:10.194Z,22.85
2018-05-12T15:33:37.779Z,22.91
2018-05-12T15:36:05.392Z,22.90
2018-05-12T15:38:33.026Z,22.99
2018-05-12T15:41:00.611Z,22.92
2018-05-12T15:43:28.195Z,22.74
2018-05-12T15:45:55.836Z,22.59
2018-05-12T15:48:23.423Z,22.42
2018-05-12T15:50:51.031Z,22.36
2018-05-12T15:53:18.779Z,22.29
2018-05-12T15:55:46.368Z,22.18
2018-05-12T15:58:13.999Z,22.11
2018-05-12T16:00:41.775Z,22.08
2018-05-12T16:03:09.450Z,22.06
2018-05-12T16:05:36.995Z,21.97
2018-05-12T16:08:04.644Z,21.92
2018-05-12T16:10:32.229Z,21.93
2018-05-12T16:12:59.807Z,21.94
2018-05-12T16:15:27.454Z,22.00
2018-05-12T16:17:55.043Z,22.04
2018-05-12T16:20:22.670Z,22.09
2018-05-12T16:22:50.343Z,22.15
2018-05-12T16:25:17.967Z,22.20
2018-05-12T16:27:45.578Z,22.29
2018-05-12T16:30:13.475Z,22.35
2018-05-12T16:32:41.074Z,22.38
2018-05-12T16:35:08.684Z,22.29
2018-05-12T16:37:36.451Z,22.12
2018-05-12T16:40:04.123Z,22.04
2018-05-12T16:42:31.787Z,21.91
2018-05-12T16:44:59.516Z,21.86
2018-05-12T16:47:27.187Z,21.72
2018-05-12T16:49:54.788Z,21.68
2018-05-12T16:52:22.410Z,21.60
2018-05-12T16:54:49.994Z,21.60
2018-05-12T16:57:17.602Z,21.57
2018-05-12T16:59:45.350Z,21.55
2018-05-12T17:02:12.941Z,21.49
2018-05-12T17:04:40.530Z,21.46
2018-05-12T17:07:08.214Z,21.40
2018-05-12T17:09:35.830Z,21.36
2018-05-12T17:12:03.416Z,21.33
2018-05-12T17:14:31.208Z,21.32
2018-05-12T17:16:58.775Z,21.33
2018-05-12T17:19:26.339Z,21.33
2018-05-12T17:21:53.989Z,21.29
2018-05-12T17:24:21.721Z,21.27
2018-05-12T17:26:49.417Z,21.21
2018-05-12T17:29:17.103Z,21.20
2018-05-12T17:31:44.811Z,21.20
2018-05-12T17:34:12.546Z,21.19
2018-05-12T17:36:40.274Z,21.18
2018-05-12T17:39:07.881Z,21.15
2018-05-12T17:41:35.475Z,21.11
2018-05-12T17:44:03.160Z,21.04
2018-05-12T17:46:30.734Z,20.98
2018-05-12T17:48:58.334Z,20.91
2018-05-12T17:51:26.330Z,20.80
2018-05-12T17:53:53.899Z,20.72
2018-05-12T17:56:21.475Z,20.63
2018-05-12T17:58:49.129Z,20.55
2018-05-12T18:01:25.314Z,20.49
2018-05-12T18:03:52.965Z,20.42
2018-05-12T18:06:20.541Z,20.40
2018-05-12T18:08:48.143Z,20.32
2018-05-12T18:11:15.807Z,20.19
2018-05-12T18:13:43.416Z,20.03
2018-05-12T18:16:11.064Z,19.94
2018-05-12T18:18:38.817Z,19.86
2018-05-12T18:21:07.432Z,19.86
2018-05-12T18:23:35.026Z,19.82
2018-05-12T18:26:02.779Z,19.78
2018-05-12T18:28:30.377Z,19.65
2018-05-12T18:30:58.006Z,19.60
2018-05-12T18:33:25.658Z,19.43
2018-05-12T18:35:53.241Z,19.37
2018-05-12T18:38:20.860Z,19.34
2018-05-12T18:40:48.534Z,19.29
2018-05-12T18:43:16.176Z,19.26
2018-05-12T18:45:43.785Z,19.15
2018-05-12T18:48:11.555Z,19.12
2018-05-12T18:50:39.149Z,19.07
2018-05-12T18:53:06.803Z,19.02
2018-05-12T18:55:34.535Z,18.97
2018-05-12T18:58:02.270Z,18.91
2018-05-12T19:00:30.036Z,18.87
2018-05-12T19:02:58.404Z,18.81
2018-05-12T19:05:26.010Z,18.72
2018-05-12T19:07:53.610Z,18.64
2018-05-12T19:10:21.396Z,18.55
2018-05-12T19:12:48.984Z,18.49
2018-05-12T19:15:16.639Z,18.32
2018-05-12T19:17:44.282Z,18.30
2018-05-12T19:20:11.865Z,18.18
2018-05-12T19:22:39.526Z,18.16
2018-05-12T19:25:07.218Z,18.11
2018-05-12T19:27:34.976Z,18.07
2018-05-12T19:30:02.672Z,18.00
2018-05-12T19:32:30.535Z,17.90
2018-05-12T19:34:58.232Z,17.83
2018-05-12T19:37:25.958Z,17.82
2018-05-12T19:39:53.987Z,17.77
2018-05-12T19:42:21.959Z,17.74
2018-05-12T19:44:50.578Z,17.69
2018-05-12T19:47:18.557Z,17.64
2018-05-12T19:49:46.367Z,17.62
2018-05-12T19:52:14.189Z,17.62
2018-05-12T19:54:41.914Z,17.65
2018-05-12T19:57:09.567Z,17.72
2018-05-12T19:59:37.209Z,17.65
2018-05-12T20:02:04.915Z,17.57
2018-05-12T20:04:32.621Z,17.49
2018-05-12T20:07:00.563Z,17.40
2018-05-12T20:09:28.379Z,17.41
2018-05-12T20:11:56.188Z,17.33
2018-05-12T20:14:23.909Z,17.30
2018-05-12T20:16:51.719Z,17.30
2018-05-12T20:19:19.342Z,17.32
2018-05-12T20:21:47.028Z,17.35
2018-05-12T20:24:14.945Z,17.36
2018-05-12T20:26:43.770Z,17.39
2018-05-12T20:29:11.582Z,17.40
2018-05-12T20:31:39.488Z,17.42
2018-05-12T20:34:07.090Z,17.41
2018-05-12T20:36:34.707Z,17.41
2018-05-12T20:39:02.429Z,17.46
2018-05-12T20:41:30.570Z,17.48
2018-05-12T20:43:58.186Z,17.51
2018-05-12T20:46:26.046Z,17.48
2018-05-12T20:48:53.626Z,17.50
2018-05-12T20:51:21.195Z,17.43
2018-05-12T20:53:48.921Z,17.32
2018-05-12T20:56:16.492Z,17.24
2018-05-12T20:58:44.148Z,17.13
2018-05-12T21:01:11.853Z,17.06
2018-05-12T21:03:39.446Z,16.93
2018-05-12T21:06:07.071Z,16.79
2018-05-12T21:08:34.787Z,16.73
2018-05-12T21:11:02.367Z,16.69
2018-05-12T21:13:29.971Z,16.61
2018-05-12T21:15:57.660Z,16.54
2018-05-12T21:18:26.152Z,16.48
2018-05-12T21:20:53.788Z,16.42
2018-05-12T21:23:21.424Z,16.35
2018-05-12T21:25:48.998Z,16.30
2018-05-12T21:28:16.573Z,16.30
2018-05-12T21:30:44.264Z,16.34
2018-05-12T21:33:11.904Z,16.36
2018-05-12T21:35:39.545Z,16.37
2018-05-12T21:38:07.233Z,16.39
2018-05-12T21:40:34.808Z,16.42
2018-05-12T21:43:02.380Z,16.43
2018-05-12T21:45:30.010Z,16.44
2018-05-12T21:47:57.649Z,16.46
2018-05-12T21:50:25.584Z,16.50
2018-05-12T21:52:53.364Z,16.53
2018-05-12T21:55:20.947Z,16.56
2018-05-12T21:57:48.589Z,16.61
2018-05-12T22:00:16.292Z,16.63
2018-05-12T22:02:43.869Z,16.62
2018-05-12T22:05:11.463Z,16.65
2018-05-12T22:07:39.196Z,16.66
2018-05-12T22:10:06.775Z,16.62
2018-05-12T22:12:34.381Z,16.56
2018-05-12T22:15:02.109Z,16.56
2018-05-12T22:17:29.762Z,16.57
2018-05-12T22:19:57.339Z,16.61
2018-05-12T22:22:25.303Z,16.60
2018-05-12T22:24:52.948Z,16.60
2018-05-12T22:27:20.602Z,16.61
2018-05-12T22:29:48.243Z,16.58
2018-05-12T22:32:15.887Z,16.60
2018-05-12T22:34:43.452Z,16.60
2018-05-12T22:37:11.078Z,16.60
2018-05-12T22:39:38.681Z,16.62
2018-05-12T22:42:06.268Z,16.58
2018-05-12T22:44:33.992Z,16.53
2018-05-12T22:47:01.602Z,16.47
2018-05-12T22:49:29.246Z,16.38
2018-05-12T22:51:56.866Z,16.32
2018-05-12T22:54:24.443Z,16.29
2018-05-12T22:56:52.015Z,16.23
2018-05-12T22:59:19.641Z,16.15
2018-05-12T23:01:47.305Z,16.07
2018-05-12T23:04:14.889Z,16.02
2018-05-12T23:06:42.615Z,15.96
2018-05-12T23:09:10.241Z,15.91
2018-05-12T23:11:37.840Z,15.85
2018-05-12T23:14:05.542Z,15.72
2018-05-12T23:16:33.180Z,15.64
2018-05-12T23:19:00.810Z,15.60
2018-05-12T23:21:28.424Z,15.56
2018-05-12T23:23:56.057Z,15.52
2018-05-12T23:26:23.650Z,15.53
2018-05-12T23:28:51.403Z,15.54
2018-05-12T23:31:18.977Z,15.55
2018-05-12T23:33:46.560Z,15.54
2018-05-12T23:36:14.176Z,15.53
2018-05-12T23:38:41.768Z,15.52
2018-05-12T23:41:09.407Z,15.52
2018-05-12T23:43:37.029Z,15.56
2018-05-12T23:46:04.685Z,15.61
2018-05-12T23:48:32.263Z,15.65
2018-05-12T23:51:00.037Z,15.68
2018-05-12T23:53:27.621Z,15.69
2018-05-12T23:55:55.281Z,15.68
2018-05-12T23:58:23.178Z,15.67
